sensor_id;sensor_type;location;lat;lon;timestamp;temperature;humidity
484;DHT22;228;48.922;12.198;2022-11-20T00:01:23;3.80;81.50
484;DHT22;228;48.922;12.198;2022-11-20T00:03:52;4.10;80.60
484;DHT22;228;48.922;12.198;2022-11-20T00:09:36;3.80;81.60
484;DHT22;228;48.922;12.198;2022-11-20T00:12:02;3.40;81.00
484;DHT22;228;48.922;12.198;2022-11-20T00:14:28;3.20;81.90
484;DHT22;228;48.922;12.198;2022-11-20T00:16:54;3.60;81.60
484;DHT22;228;48.922;12.198;2022-11-20T00:19:20;3.40;80.90
484;DHT22;228;48.922;12.198;2022-11-20T00:21:46;3.60;81.90
484;DHT22;228;48.922;12.198;2022-11-20T00:24:12;4.10;81.00
484;DHT22;228;48.922;12.198;2022-11-20T00:26:38;4.20;78.80
484;DHT22;228;48.922;12.198;2022-11-20T00:29:05;3.60;80.00
484;DHT22;228;48.922;12.198;2022-11-20T00:31:31;4.00;80.90
484;DHT22;228;48.922;12.198;2022-11-20T00:33:58;4.10;79.20
484;DHT22;228;48.922;12.198;2022-11-20T00:36:26;4.00;79.20
484;DHT22;228;48.922;12.198;2022-11-20T00:38:55;4.10;79.50
484;DHT22;228;48.922;12.198;2022-11-20T00:41:22;4.20;78.70
484;DHT22;228;48.922;12.198;2022-11-20T00:43:51;4.20;78.70
484;DHT22;228;48.922;12.198;2022-11-20T00:46:20;3.90;78.00
484;DHT22;228;48.922;12.198;2022-11-20T00:48:47;4.00;80.00
484;DHT22;228;48.922;12.198;2022-11-20T00:51:16;3.70;79.80
484;DHT22;228;48.922;12.198;2022-11-20T00:53:43;3.50;81.40
484;DHT22;228;48.922;12.198;2022-11-20T00:56:11;3.30;81.60
484;DHT22;228;48.922;12.198;2022-11-20T00:58:41;3.30;82.60
484;DHT22;228;48.922;12.198;2022-11-20T01:01:18;3.50;82.30
484;DHT22;228;48.922;12.198;2022-11-20T01:03:48;3.50;81.60
484;DHT22;228;48.922;12.198;2022-11-20T01:08:46;3.30;82.50
484;DHT22;228;48.922;12.198;2022-11-20T01:11:19;3.50;82.10
484;DHT22;228;48.922;12.198;2022-11-20T01:13:52;3.80;81.50
484;DHT22;228;48.922;12.198;2022-11-20T01:16:26;4.00;80.50
484;DHT22;228;48.922;12.198;2022-11-20T01:18:55;4.30;79.80
484;DHT22;228;48.922;12.198;2022-11-20T01:23:57;4.90;76.90
484;DHT22;228;48.922;12.198;2022-11-20T01:26:29;4.80;76.30
484;DHT22;228;48.922;12.198;2022-11-20T01:28:57;5.20;76.80
484;DHT22;228;48.922;12.198;2022-11-20T01:31:26;5.50;75.10
484;DHT22;228;48.922;12.198;2022-11-20T01:33:58;5.90;74.10
484;DHT22;228;48.922;12.198;2022-11-20T01:36:28;6.10;72.40
484;DHT22;228;48.922;12.198;2022-11-20T01:38:57;6.20;72.00
484;DHT22;228;48.922;12.198;2022-11-20T01:41:27;6.00;71.30
484;DHT22;228;48.922;12.198;2022-11-20T01:44:15;5.70;72.00
484;DHT22;228;48.922;12.198;2022-11-20T01:46:56;5.70;73.20
484;DHT22;228;48.922;12.198;2022-11-20T01:52:57;6.10;72.40
484;DHT22;228;48.922;12.198;2022-11-20T01:55:34;6.30;70.90
484;DHT22;228;48.922;12.198;2022-11-20T01:58:03;6.20;71.70
484;DHT22;228;48.922;12.198;2022-11-20T02:00:30;6.30;71.20
484;DHT22;228;48.922;12.198;2022-11-20T02:03:12;6.00;71.10
484;DHT22;228;48.922;12.198;2022-11-20T02:08:36;5.70;72.30
484;DHT22;228;48.922;12.198;2022-11-20T02:11:03;5.60;73.00
484;DHT22;228;48.922;12.198;2022-11-20T02:13:29;5.80;73.10
484;DHT22;228;48.922;12.198;2022-11-20T02:16:26;6.00;72.30
484;DHT22;228;48.922;12.198;2022-11-20T02:18:56;6.30;71.70
484;DHT22;228;48.922;12.198;2022-11-20T02:24:46;6.10;70.50
484;DHT22;228;48.922;12.198;2022-11-20T02:27:15;6.10;71.70
484;DHT22;228;48.922;12.198;2022-11-20T02:30:01;6.00;71.20
484;DHT22;228;48.922;12.198;2022-11-20T02:32:34;6.00;71.70
484;DHT22;228;48.922;12.198;2022-11-20T02:37:47;5.90;72.70
484;DHT22;228;48.922;12.198;2022-11-20T02:40:14;5.90;72.80
484;DHT22;228;48.922;12.198;2022-11-20T02:42:40;6.20;72.30
484;DHT22;228;48.922;12.198;2022-11-20T02:45:07;6.10;71.30
484;DHT22;228;48.922;12.198;2022-11-20T02:47:33;6.10;71.80
484;DHT22;228;48.922;12.198;2022-11-20T02:50:00;6.10;72.10
484;DHT22;228;48.922;12.198;2022-11-20T02:52:26;6.00;71.60
484;DHT22;228;48.922;12.198;2022-11-20T02:54:52;6.00;72.40
484;DHT22;228;48.922;12.198;2022-11-20T02:57:18;6.00;71.50
484;DHT22;228;48.922;12.198;2022-11-20T02:59:44;6.00;71.70
484;DHT22;228;48.922;12.198;2022-11-20T03:02:10;6.00;72.20
484;DHT22;228;48.922;12.198;2022-11-20T03:04:36;6.30;71.40
484;DHT22;228;48.922;12.198;2022-11-20T03:07:03;6.50;70.80
484;DHT22;228;48.922;12.198;2022-11-20T03:09:29;6.60;70.60
484;DHT22;228;48.922;12.198;2022-11-20T03:11:55;6.80;69.70
484;DHT22;228;48.922;12.198;2022-11-20T03:14:22;6.90;68.90
484;DHT22;228;48.922;12.198;2022-11-20T03:16:48;6.90;68.70
484;DHT22;228;48.922;12.198;2022-11-20T03:19:14;6.80;68.60
484;DHT22;228;48.922;12.198;2022-11-20T03:21:40;6.70;69.00
484;DHT22;228;48.922;12.198;2022-11-20T03:24:06;6.80;69.10
484;DHT22;228;48.922;12.198;2022-11-20T03:26:33;6.90;68.90
484;DHT22;228;48.922;12.198;2022-11-20T03:29:00;7.10;68.30
484;DHT22;228;48.922;12.198;2022-11-20T03:31:33;7.20;68.10
484;DHT22;228;48.922;12.198;2022-11-20T03:34:01;7.10;67.40
484;DHT22;228;48.922;12.198;2022-11-20T03:36:28;7.00;68.10
484;DHT22;228;48.922;12.198;2022-11-20T03:38:55;7.00;68.40
484;DHT22;228;48.922;12.198;2022-11-20T03:41:24;7.00;68.40
484;DHT22;228;48.922;12.198;2022-11-20T03:43:53;6.90;68.80
484;DHT22;228;48.922;12.198;2022-11-20T03:46:21;7.00;69.30
484;DHT22;228;48.922;12.198;2022-11-20T03:48:48;6.70;69.20
484;DHT22;228;48.922;12.198;2022-11-20T03:51:16;6.90;69.70
484;DHT22;228;48.922;12.198;2022-11-20T03:53:46;7.00;69.20
484;DHT22;228;48.922;12.198;2022-11-20T03:56:15;7.10;68.90
484;DHT22;228;48.922;12.198;2022-11-20T03:58:42;7.10;68.50
484;DHT22;228;48.922;12.198;2022-11-20T04:01:11;7.20;69.00
484;DHT22;228;48.922;12.198;2022-11-20T04:03:43;7.30;68.50
484;DHT22;228;48.922;12.198;2022-11-20T04:06:11;7.30;68.40
484;DHT22;228;48.922;12.198;2022-11-20T04:08:39;7.20;68.90
484;DHT22;228;48.922;12.198;2022-11-20T04:11:20;7.30;68.70
484;DHT22;228;48.922;12.198;2022-11-20T04:13:59;7.10;69.10
484;DHT22;228;48.922;12.198;2022-11-20T04:16:32;7.10;69.80
484;DHT22;228;48.922;12.198;2022-11-20T04:19:02;7.10;69.40
484;DHT22;228;48.922;12.198;2022-11-20T04:21:29;7.00;69.20
484;DHT22;228;48.922;12.198;2022-11-20T04:23:56;6.70;70.20
484;DHT22;228;48.922;12.198;2022-11-20T04:26:25;6.80;70.60
484;DHT22;228;48.922;12.198;2022-11-20T04:28:52;6.60;70.70
484;DHT22;228;48.922;12.198;2022-11-20T04:31:20;6.40;72.00
484;DHT22;228;48.922;12.198;2022-11-20T04:33:51;6.60;71.80
484;DHT22;228;48.922;12.198;2022-11-20T04:36:25;7.00;70.90
484;DHT22;228;48.922;12.198;2022-11-20T04:38:53;7.00;70.10
484;DHT22;228;48.922;12.198;2022-11-20T04:41:23;7.10;69.40
484;DHT22;228;48.922;12.198;2022-11-20T04:43:53;7.20;70.50
484;DHT22;228;48.922;12.198;2022-11-20T04:46:26;7.30;69.40
484;DHT22;228;48.922;12.198;2022-11-20T04:48:53;7.10;69.40
484;DHT22;228;48.922;12.198;2022-11-20T04:51:19;7.10;69.70
484;DHT22;228;48.922;12.198;2022-11-20T04:53:45;7.10;70.00
484;DHT22;228;48.922;12.198;2022-11-20T04:56:12;7.00;70.50
484;DHT22;228;48.922;12.198;2022-11-20T04:58:38;7.20;70.10
484;DHT22;228;48.922;12.198;2022-11-20T05:01:07;7.30;69.60
484;DHT22;228;48.922;12.198;2022-11-20T05:03:36;7.40;69.30
484;DHT22;228;48.922;12.198;2022-11-20T05:06:03;7.40;68.70
484;DHT22;228;48.922;12.198;2022-11-20T05:08:31;7.30;69.10
484;DHT22;228;48.922;12.198;2022-11-20T05:11:05;7.30;69.60
484;DHT22;228;48.922;12.198;2022-11-20T05:13:35;7.30;69.60
484;DHT22;228;48.922;12.198;2022-11-20T05:16:10;7.30;69.40
484;DHT22;228;48.922;12.198;2022-11-20T05:18:38;7.40;69.40
484;DHT22;228;48.922;12.198;2022-11-20T05:21:06;7.40;69.40
484;DHT22;228;48.922;12.198;2022-11-20T05:23:33;7.10;70.00
484;DHT22;228;48.922;12.198;2022-11-20T05:26:00;6.90;70.70
484;DHT22;228;48.922;12.198;2022-11-20T05:28:28;7.10;70.80
484;DHT22;228;48.922;12.198;2022-11-20T05:30:55;7.30;70.00
484;DHT22;228;48.922;12.198;2022-11-20T05:33:21;7.30;69.40
484;DHT22;228;48.922;12.198;2022-11-20T05:35:48;7.20;70.20
484;DHT22;228;48.922;12.198;2022-11-20T05:38:14;7.30;69.90
484;DHT22;228;48.922;12.198;2022-11-20T05:40:40;7.20;70.00
484;DHT22;228;48.922;12.198;2022-11-20T05:43:07;6.90;71.40
484;DHT22;228;48.922;12.198;2022-11-20T05:45:33;7.10;71.80
484;DHT22;228;48.922;12.198;2022-11-20T05:47:59;7.10;71.00
484;DHT22;228;48.922;12.198;2022-11-20T05:50:27;7.20;71.20
484;DHT22;228;48.922;12.198;2022-11-20T05:52:53;7.20;70.80
484;DHT22;228;48.922;12.198;2022-11-20T05:55:19;7.30;70.80
484;DHT22;228;48.922;12.198;2022-11-20T05:57:45;7.40;70.70
484;DHT22;228;48.922;12.198;2022-11-20T06:00:12;7.40;70.60
484;DHT22;228;48.922;12.198;2022-11-20T06:02:39;7.40;70.70
484;DHT22;228;48.922;12.198;2022-11-20T06:05:05;7.50;70.10
484;DHT22;228;48.922;12.198;2022-11-20T06:07:31;7.60;70.30
484;DHT22;228;48.922;12.198;2022-11-20T06:09:57;7.40;69.80
484;DHT22;228;48.922;12.198;2022-11-20T06:12:23;7.10;71.00
484;DHT22;228;48.922;12.198;2022-11-20T06:14:49;6.60;72.50
484;DHT22;228;48.922;12.198;2022-11-20T06:17:15;6.70;73.30
484;DHT22;228;48.922;12.198;2022-11-20T06:19:41;7.10;72.80
484;DHT22;228;48.922;12.198;2022-11-20T06:22:07;7.40;71.40
484;DHT22;228;48.922;12.198;2022-11-20T06:24:33;7.50;71.20
484;DHT22;228;48.922;12.198;2022-11-20T06:26:59;7.60;70.80
484;DHT22;228;48.922;12.198;2022-11-20T06:29:25;7.70;69.90
484;DHT22;228;48.922;12.198;2022-11-20T06:31:51;7.50;70.70
484;DHT22;228;48.922;12.198;2022-11-20T06:34:17;7.30;71.00
484;DHT22;228;48.922;12.198;2022-11-20T06:36:43;7.20;71.90
484;DHT22;228;48.922;12.198;2022-11-20T06:39:09;7.10;72.00
484;DHT22;228;48.922;12.198;2022-11-20T06:41:35;7.30;72.60
484;DHT22;228;48.922;12.198;2022-11-20T06:44:01;7.50;71.70
484;DHT22;228;48.922;12.198;2022-11-20T06:46:29;7.50;71.50
484;DHT22;228;48.922;12.198;2022-11-20T06:48:55;7.70;71.00
484;DHT22;228;48.922;12.198;2022-11-20T06:51:21;7.80;71.00
484;DHT22;228;48.922;12.198;2022-11-20T06:53:47;7.80;70.90
484;DHT22;228;48.922;12.198;2022-11-20T06:56:14;8.00;70.30
484;DHT22;228;48.922;12.198;2022-11-20T06:58:40;8.00;70.00
484;DHT22;228;48.922;12.198;2022-11-20T07:01:08;8.10;70.40
484;DHT22;228;48.922;12.198;2022-11-20T07:03:36;7.70;70.70
484;DHT22;228;48.922;12.198;2022-11-20T07:06:03;7.70;71.10
484;DHT22;228;48.922;12.198;2022-11-20T07:08:30;7.80;71.20
484;DHT22;228;48.922;12.198;2022-11-20T07:11:00;7.90;70.70
484;DHT22;228;48.922;12.198;2022-11-20T07:13:28;7.90;70.70
484;DHT22;228;48.922;12.198;2022-11-20T07:15:58;7.90;70.20
484;DHT22;228;48.922;12.198;2022-11-20T07:18:25;7.80;70.90
484;DHT22;228;48.922;12.198;2022-11-20T07:20:52;7.80;70.80
484;DHT22;228;48.922;12.198;2022-11-20T07:23:18;7.80;71.40
484;DHT22;228;48.922;12.198;2022-11-20T07:25:44;8.00;71.20
484;DHT22;228;48.922;12.198;2022-11-20T07:28:10;8.10;70.40
484;DHT22;228;48.922;12.198;2022-11-20T07:30:36;8.30;70.40
484;DHT22;228;48.922;12.198;2022-11-20T07:33:03;8.30;69.70
484;DHT22;228;48.922;12.198;2022-11-20T07:35:29;8.30;70.20
484;DHT22;228;48.922;12.198;2022-11-20T07:37:55;8.40;69.80
484;DHT22;228;48.922;12.198;2022-11-20T07:40:21;8.40;69.60
484;DHT22;228;48.922;12.198;2022-11-20T07:42:52;8.40;69.80
484;DHT22;228;48.922;12.198;2022-11-20T07:45:21;8.50;70.30
484;DHT22;228;48.922;12.198;2022-11-20T07:47:49;8.60;69.80
484;DHT22;228;48.922;12.198;2022-11-20T07:50:16;8.60;70.70
484;DHT22;228;48.922;12.198;2022-11-20T07:52:43;8.50;70.40
484;DHT22;228;48.922;12.198;2022-11-20T07:55:10;8.60;70.70
484;DHT22;228;48.922;12.198;2022-11-20T07:57:36;8.80;70.10
484;DHT22;228;48.922;12.198;2022-11-20T08:00:04;9.10;69.70
484;DHT22;228;48.922;12.198;2022-11-20T08:02:41;9.30;69.40
484;DHT22;228;48.922;12.198;2022-11-20T08:05:09;9.40;69.00
484;DHT22;228;48.922;12.198;2022-11-20T08:07:40;9.40;69.50
484;DHT22;228;48.922;12.198;2022-11-20T08:10:08;9.30;69.30
484;DHT22;228;48.922;12.198;2022-11-20T08:12:42;8.90;70.30
484;DHT22;228;48.922;12.198;2022-11-20T08:15:28;8.60;72.00
484;DHT22;228;48.922;12.198;2022-11-20T08:20:27;8.20;74.50
484;DHT22;228;48.922;12.198;2022-11-20T08:22:58;8.00;75.50
484;DHT22;228;48.922;12.198;2022-11-20T08:25:26;7.80;76.50
484;DHT22;228;48.922;12.198;2022-11-20T08:27:52;8.00;76.20
484;DHT22;228;48.922;12.198;2022-11-20T08:30:19;8.10;76.20
484;DHT22;228;48.922;12.198;2022-11-20T08:32:45;8.20;76.00
484;DHT22;228;48.922;12.198;2022-11-20T08:35:11;8.60;76.70
484;DHT22;228;48.922;12.198;2022-11-20T08:37:37;8.50;74.80
484;DHT22;228;48.922;12.198;2022-11-20T08:40:10;8.30;75.70
484;DHT22;228;48.922;12.198;2022-11-20T08:42:37;8.40;75.90
484;DHT22;228;48.922;12.198;2022-11-20T08:45:03;8.60;75.70
484;DHT22;228;48.922;12.198;2022-11-20T08:47:30;8.80;74.80
484;DHT22;228;48.922;12.198;2022-11-20T08:49:56;8.70;74.70
484;DHT22;228;48.922;12.198;2022-11-20T08:52:22;8.40;75.50
484;DHT22;228;48.922;12.198;2022-11-20T08:54:48;8.50;75.80
484;DHT22;228;48.922;12.198;2022-11-20T08:57:14;8.60;75.90
484;DHT22;228;48.922;12.198;2022-11-20T08:59:40;8.60;76.00
484;DHT22;228;48.922;12.198;2022-11-20T09:02:06;8.60;76.00
484;DHT22;228;48.922;12.198;2022-11-20T09:04:32;8.60;76.10
484;DHT22;228;48.922;12.198;2022-11-20T09:07:00;8.60;76.00
484;DHT22;228;48.922;12.198;2022-11-20T09:09:25;8.60;75.90
484;DHT22;228;48.922;12.198;2022-11-20T09:11:51;8.30;76.20
484;DHT22;228;48.922;12.198;2022-11-20T09:14:18;8.30;77.00
484;DHT22;228;48.922;12.198;2022-11-20T09:16:45;8.30;76.70
484;DHT22;228;48.922;12.198;2022-11-20T09:19:12;8.30;77.60
484;DHT22;228;48.922;12.198;2022-11-20T09:21:38;8.50;77.20
484;DHT22;228;48.922;12.198;2022-11-20T09:24:04;8.60;76.40
484;DHT22;228;48.922;12.198;2022-11-20T09:26:31;8.50;76.80
484;DHT22;228;48.922;12.198;2022-11-20T09:28:57;8.90;76.80
484;DHT22;228;48.922;12.198;2022-11-20T09:31:24;8.80;76.20
484;DHT22;228;48.922;12.198;2022-11-20T09:33:51;8.70;76.20
484;DHT22;228;48.922;12.198;2022-11-20T09:36:18;8.50;77.10
484;DHT22;228;48.922;12.198;2022-11-20T09:38:45;8.50;77.40
484;DHT22;228;48.922;12.198;2022-11-20T09:47:21;7.60;79.90
484;DHT22;228;48.922;12.198;2022-11-20T09:53:25;7.60;81.10
484;DHT22;228;48.922;12.198;2022-11-20T09:55:54;7.60;81.30
484;DHT22;228;48.922;12.198;2022-11-20T09:58:31;7.80;81.10
484;DHT22;228;48.922;12.198;2022-11-20T10:01:09;7.70;80.90
484;DHT22;228;48.922;12.198;2022-11-20T10:07:16;7.80;80.30
484;DHT22;228;48.922;12.198;2022-11-20T10:09:51;8.10;79.50
484;DHT22;228;48.922;12.198;2022-11-20T10:12:22;8.30;78.70
484;DHT22;228;48.922;12.198;2022-11-20T10:15:24;8.30;78.80
484;DHT22;228;48.922;12.198;2022-11-20T10:26:22;8.80;78.80
484;DHT22;228;48.922;12.198;2022-11-20T10:29:16;8.80;77.70
484;DHT22;228;48.922;12.198;2022-11-20T10:31:51;9.00;76.60
484;DHT22;228;48.922;12.198;2022-11-20T10:34:27;8.80;77.40
484;DHT22;228;48.922;12.198;2022-11-20T10:36:59;8.90;78.10
484;DHT22;228;48.922;12.198;2022-11-20T10:42:49;8.90;77.20
484;DHT22;228;48.922;12.198;2022-11-20T10:50:35;8.30;79.20
484;DHT22;228;48.922;12.198;2022-11-20T10:53:53;8.40;79.40
484;DHT22;228;48.922;12.198;2022-11-20T10:56:11;8.20;79.60
484;DHT22;228;48.922;12.198;2022-11-20T10:58:48;8.30;80.60
484;DHT22;228;48.922;12.198;2022-11-20T11:01:25;8.30;79.90
484;DHT22;228;48.922;12.198;2022-11-20T11:03:53;8.40;79.90
484;DHT22;228;48.922;12.198;2022-11-20T11:06:37;8.20;80.20
484;DHT22;228;48.922;12.198;2022-11-20T11:09:17;8.50;80.80
484;DHT22;228;48.922;12.198;2022-11-20T11:11:47;8.30;80.00
484;DHT22;228;48.922;12.198;2022-11-20T11:14:14;8.60;80.30
484;DHT22;228;48.922;12.198;2022-11-20T11:19:22;8.90;79.20
484;DHT22;228;48.922;12.198;2022-11-20T11:21:55;8.60;78.50
484;DHT22;228;48.922;12.198;2022-11-20T11:24:29;8.20;80.60
484;DHT22;228;48.922;12.198;2022-11-20T11:27:03;8.10;80.90
484;DHT22;228;48.922;12.198;2022-11-20T11:29:37;7.90;80.70
484;DHT22;228;48.922;12.198;2022-11-20T11:32:17;7.70;82.10
484;DHT22;228;48.922;12.198;2022-11-20T11:34:44;7.80;82.80
484;DHT22;228;48.922;12.198;2022-11-20T11:37:17;7.90;82.00
484;DHT22;228;48.922;12.198;2022-11-20T11:39:46;8.00;82.10
484;DHT22;228;48.922;12.198;2022-11-20T11:42:16;8.20;81.00
484;DHT22;228;48.922;12.198;2022-11-20T11:44:45;8.00;81.90
484;DHT22;228;48.922;12.198;2022-11-20T11:58:14;8.20;80.90
484;DHT22;228;48.922;12.198;2022-11-20T12:06:31;8.00;80.80
484;DHT22;228;48.922;12.198;2022-11-20T12:09:02;8.30;80.50
484;DHT22;228;48.922;12.198;2022-11-20T12:14:33;8.00;80.40
484;DHT22;228;48.922;12.198;2022-11-20T12:17:02;8.10;81.50
484;DHT22;228;48.922;12.198;2022-11-20T12:19:33;7.90;81.90
484;DHT22;228;48.922;12.198;2022-11-20T12:22:39;7.60;83.70
484;DHT22;228;48.922;12.198;2022-11-20T12:31:00;7.70;85.60
484;DHT22;228;48.922;12.198;2022-11-20T12:39:12;7.90;85.20
484;DHT22;228;48.922;12.198;2022-11-20T12:49:01;8.00;83.40
484;DHT22;228;48.922;12.198;2022-11-20T13:08:03;7.90;82.40
484;DHT22;228;48.922;12.198;2022-11-20T13:17:04;7.70;81.80
484;DHT22;228;48.922;12.198;2022-11-20T13:19:32;7.80;82.40
484;DHT22;228;48.922;12.198;2022-11-20T13:21:58;8.00;82.50
484;DHT22;228;48.922;12.198;2022-11-20T13:24:27;8.40;81.00
484;DHT22;228;48.922;12.198;2022-11-20T13:29:37;8.40;80.30
484;DHT22;228;48.922;12.198;2022-11-20T13:32:20;8.60;79.60
484;DHT22;228;48.922;12.198;2022-11-20T13:35:00;8.60;78.90
484;DHT22;228;48.922;12.198;2022-11-20T13:37:36;8.60;79.50
484;DHT22;228;48.922;12.198;2022-11-20T13:42:43;8.80;79.00
484;DHT22;228;48.922;12.198;2022-11-20T13:45:31;9.10;78.20
484;DHT22;228;48.922;12.198;2022-11-20T13:48:04;9.30;76.90
484;DHT22;228;48.922;12.198;2022-11-20T13:51:09;9.40;76.80
484;DHT22;228;48.922;12.198;2022-11-20T14:00:13;8.80;78.80
484;DHT22;228;48.922;12.198;2022-11-20T14:02:42;8.60;79.40
484;DHT22;228;48.922;12.198;2022-11-20T14:05:22;8.60;79.40
484;DHT22;228;48.922;12.198;2022-11-20T14:07:52;8.70;78.70
484;DHT22;228;48.922;12.198;2022-11-20T14:10:25;8.70;78.70
484;DHT22;228;48.922;12.198;2022-11-20T14:12:54;8.70;78.10
484;DHT22;228;48.922;12.198;2022-11-20T14:15:32;9.00;78.40
484;DHT22;228;48.922;12.198;2022-11-20T14:18:11;9.20;77.30
484;DHT22;228;48.922;12.198;2022-11-20T14:20:38;9.40;76.90
484;DHT22;228;48.922;12.198;2022-11-20T14:23:10;9.10;77.10
484;DHT22;228;48.922;12.198;2022-11-20T14:25:37;9.30;77.40
484;DHT22;228;48.922;12.198;2022-11-20T14:28:04;9.10;76.80
484;DHT22;228;48.922;12.198;2022-11-20T14:30:42;9.10;76.50
484;DHT22;228;48.922;12.198;2022-11-20T14:33:11;8.90;78.10
484;DHT22;228;48.922;12.198;2022-11-20T14:35:50;9.00;77.60
484;DHT22;228;48.922;12.198;2022-11-20T14:38:21;8.90;77.70
484;DHT22;228;48.922;12.198;2022-11-20T14:40:50;9.20;77.30
484;DHT22;228;48.922;12.198;2022-11-20T14:43:23;9.20;76.70
484;DHT22;228;48.922;12.198;2022-11-20T14:46:03;9.10;77.40
484;DHT22;228;48.922;12.198;2022-11-20T14:48:33;9.20;76.70
484;DHT22;228;48.922;12.198;2022-11-20T14:51:03;8.80;77.40
484;DHT22;228;48.922;12.198;2022-11-20T14:53:29;8.80;77.70
484;DHT22;228;48.922;12.198;2022-11-20T14:55:59;8.80;78.00
484;DHT22;228;48.922;12.198;2022-11-20T14:58:31;8.60;78.80
484;DHT22;228;48.922;12.198;2022-11-20T15:01:00;8.70;79.00
484;DHT22;228;48.922;12.198;2022-11-20T15:03:32;8.70;78.60
484;DHT22;228;48.922;12.198;2022-11-20T15:05:58;8.70;79.20
484;DHT22;228;48.922;12.198;2022-11-20T15:08:25;8.50;79.70
484;DHT22;228;48.922;12.198;2022-11-20T15:10:52;8.50;80.20
484;DHT22;228;48.922;12.198;2022-11-20T15:13:30;8.40;79.80
484;DHT22;228;48.922;12.198;2022-11-20T15:16:00;8.30;80.60
484;DHT22;228;48.922;12.198;2022-11-20T15:18:31;8.20;80.30
484;DHT22;228;48.922;12.198;2022-11-20T15:21:02;8.10;80.80
484;DHT22;228;48.922;12.198;2022-11-20T15:23:29;7.90;81.30
484;DHT22;228;48.922;12.198;2022-11-20T15:25:55;8.10;80.80
484;DHT22;228;48.922;12.198;2022-11-20T15:28:33;8.00;80.70
484;DHT22;228;48.922;12.198;2022-11-20T15:31:01;8.00;81.50
484;DHT22;228;48.922;12.198;2022-11-20T15:33:29;7.90;81.70
484;DHT22;228;48.922;12.198;2022-11-20T15:35:56;8.00;81.60
484;DHT22;228;48.922;12.198;2022-11-20T15:38:22;7.90;82.30
484;DHT22;228;48.922;12.198;2022-11-20T15:40:48;8.00;82.50
484;DHT22;228;48.922;12.198;2022-11-20T15:43:14;8.20;81.00
484;DHT22;228;48.922;12.198;2022-11-20T15:45:46;8.20;80.30
484;DHT22;228;48.922;12.198;2022-11-20T15:48:26;8.40;80.90
484;DHT22;228;48.922;12.198;2022-11-20T15:51:11;8.20;80.50
484;DHT22;228;48.922;12.198;2022-11-20T15:53:38;8.50;80.00
484;DHT22;228;48.922;12.198;2022-11-20T15:56:07;8.20;79.70
484;DHT22;228;48.922;12.198;2022-11-20T15:58:39;8.10;80.60
484;DHT22;228;48.922;12.198;2022-11-20T16:01:11;8.20;80.40
484;DHT22;228;48.922;12.198;2022-11-20T16:03:38;8.40;79.40
484;DHT22;228;48.922;12.198;2022-11-20T16:06:05;8.20;79.30
484;DHT22;228;48.922;12.198;2022-11-20T16:08:31;8.00;80.00
484;DHT22;228;48.922;12.198;2022-11-20T16:10:57;8.00;80.60
484;DHT22;228;48.922;12.198;2022-11-20T16:13:24;8.00;80.60
484;DHT22;228;48.922;12.198;2022-11-20T16:16:31;8.40;79.20
484;DHT22;228;48.922;12.198;2022-11-20T16:18:59;8.10;79.50
484;DHT22;228;48.922;12.198;2022-11-20T16:21:26;8.20;79.40
484;DHT22;228;48.922;12.198;2022-11-20T16:24:04;8.30;79.40
484;DHT22;228;48.922;12.198;2022-11-20T16:26:32;8.30;79.20
484;DHT22;228;48.922;12.198;2022-11-20T16:29:00;8.10;79.80
484;DHT22;228;48.922;12.198;2022-11-20T16:31:28;8.40;79.20
484;DHT22;228;48.922;12.198;2022-11-20T16:33:56;8.40;78.00
484;DHT22;228;48.922;12.198;2022-11-20T16:36:25;8.60;77.70
484;DHT22;228;48.922;12.198;2022-11-20T16:41:20;8.70;76.80
484;DHT22;228;48.922;12.198;2022-11-20T16:43:50;8.70;76.20
484;DHT22;228;48.922;12.198;2022-11-20T16:46:19;8.60;76.70
484;DHT22;228;48.922;12.198;2022-11-20T16:48:55;8.60;76.20
484;DHT22;228;48.922;12.198;2022-11-20T16:51:26;8.50;76.80
484;DHT22;228;48.922;12.198;2022-11-20T16:53:55;8.50;76.40
484;DHT22;228;48.922;12.198;2022-11-20T16:56:24;8.60;76.10
484;DHT22;228;48.922;12.198;2022-11-20T16:58:52;8.50;76.10
484;DHT22;228;48.922;12.198;2022-11-20T17:01:21;8.50;76.10
484;DHT22;228;48.922;12.198;2022-11-20T17:04:00;8.40;75.90
484;DHT22;228;48.922;12.198;2022-11-20T17:06:30;8.50;76.10
484;DHT22;228;48.922;12.198;2022-11-20T17:08:57;8.00;76.90
484;DHT22;228;48.922;12.198;2022-11-20T17:11:24;8.20;76.90
484;DHT22;228;48.922;12.198;2022-11-20T17:13:51;8.40;75.70
484;DHT22;228;48.922;12.198;2022-11-20T17:16:20;8.60;74.20
484;DHT22;228;48.922;12.198;2022-11-20T17:18:47;8.60;74.10
484;DHT22;228;48.922;12.198;2022-11-20T17:21:18;8.50;73.70
484;DHT22;228;48.922;12.198;2022-11-20T17:23:45;8.40;73.40
484;DHT22;228;48.922;12.198;2022-11-20T17:26:19;8.40;73.40
484;DHT22;228;48.922;12.198;2022-11-20T17:28:53;8.40;72.90
484;DHT22;228;48.922;12.198;2022-11-20T17:31:19;8.40;72.60
484;DHT22;228;48.922;12.198;2022-11-20T17:33:46;8.30;71.70
484;DHT22;228;48.922;12.198;2022-11-20T17:36:15;8.10;72.10
484;DHT22;228;48.922;12.198;2022-11-20T17:38:42;8.10;72.70
484;DHT22;228;48.922;12.198;2022-11-20T17:41:11;8.00;72.90
484;DHT22;228;48.922;12.198;2022-11-20T17:43:39;8.00;73.20
484;DHT22;228;48.922;12.198;2022-11-20T17:46:09;8.10;72.90
484;DHT22;228;48.922;12.198;2022-11-20T17:48:43;8.10;72.60
484;DHT22;228;48.922;12.198;2022-11-20T17:51:14;8.00;72.90
484;DHT22;228;48.922;12.198;2022-11-20T17:53:47;7.70;73.10
484;DHT22;228;48.922;12.198;2022-11-20T17:56:15;7.40;74.90
484;DHT22;228;48.922;12.198;2022-11-20T17:59:05;7.50;76.10
484;DHT22;228;48.922;12.198;2022-11-20T18:01:32;7.70;75.30
484;DHT22;228;48.922;12.198;2022-11-20T18:03:59;7.90;74.30
484;DHT22;228;48.922;12.198;2022-11-20T18:06:26;8.00;73.70
484;DHT22;228;48.922;12.198;2022-11-20T18:08:54;8.00;73.30
484;DHT22;228;48.922;12.198;2022-11-20T18:11:24;8.10;73.10
484;DHT22;228;48.922;12.198;2022-11-20T18:13:54;8.10;73.20
484;DHT22;228;48.922;12.198;2022-11-20T18:16:42;8.10;73.00
484;DHT22;228;48.922;12.198;2022-11-20T18:19:15;8.20;73.40
484;DHT22;228;48.922;12.198;2022-11-20T18:21:43;8.20;72.30
484;DHT22;228;48.922;12.198;2022-11-20T18:24:09;8.10;71.80
484;DHT22;228;48.922;12.198;2022-11-20T18:26:36;8.00;71.90
484;DHT22;228;48.922;12.198;2022-11-20T18:29:02;8.00;72.30
484;DHT22;228;48.922;12.198;2022-11-20T18:31:28;8.10;71.70
484;DHT22;228;48.922;12.198;2022-11-20T18:33:55;8.00;70.60
484;DHT22;228;48.922;12.198;2022-11-20T18:36:24;7.90;70.90
484;DHT22;228;48.922;12.198;2022-11-20T18:38:52;7.80;71.00
484;DHT22;228;48.922;12.198;2022-11-20T18:41:22;7.70;71.30
484;DHT22;228;48.922;12.198;2022-11-20T18:44:20;7.10;74.60
484;DHT22;228;48.922;12.198;2022-11-20T18:47:10;7.00;76.80
484;DHT22;228;48.922;12.198;2022-11-20T18:49:37;7.10;76.90
484;DHT22;228;48.922;12.198;2022-11-20T18:52:04;7.40;76.10
484;DHT22;228;48.922;12.198;2022-11-20T18:54:30;7.50;75.70
484;DHT22;228;48.922;12.198;2022-11-20T18:56:57;7.60;75.90
484;DHT22;228;48.922;12.198;2022-11-20T18:59:23;7.80;75.30
484;DHT22;228;48.922;12.198;2022-11-20T19:01:49;7.70;75.10
484;DHT22;228;48.922;12.198;2022-11-20T19:04:16;7.80;75.10